Terminal Aerodrome Forecast
Issued by NWS Portland, OR

Home | Current Version | Previous Version | Text Only | Print | Product List | Glossary On
Versions: 1 2 3 4 5 6 7 8 9 10 11 12 13 14 15 16 17 18 19 20
000
FTUS46 KPQR 050540
TAFAST
TAF
KAST 050540Z 0506/0606 33011KT P6SM BKN028 OVC040
     FM051200 33008KT P6SM BKN015 OVC025
     FM051700 33009KT P6SM SCT020 BKN030
     FM052000 32013G18KT P6SM SCT035 BKN050
     FM060300 32009KT P6SM SCT035 SCT050=

USA.gov is the U.S. government's official web portal to all federal, state and local government web resources and services.